createdAt,value
2019-03-01T00:00:24.482Z,52.80
2019-03-01T00:02:55.221Z,48.63
2019-03-01T00:05:35.204Z,52.60
2019-03-01T00:08:11.114Z,56.13
2019-03-01T00:10:59.772Z,57.00
2019-03-01T00:13:56.517Z,56.90
2019-03-01T00:16:42.197Z,53.87
2019-03-01T00:19:31.160Z,52.77
2019-03-01T00:22:27.708Z,47.83
2019-03-01T00:25:12.887Z,47.20
2019-03-01T00:28:10.741Z,50.43
2019-03-01T00:31:03.600Z,53.70
2019-03-01T00:34:00.132Z,49.23
2019-03-01T00:36:51.040Z,51.47
2019-03-01T00:39:48.601Z,47.70
2019-03-01T00:42:31.119Z,48.77
2019-03-01T00:45:01.848Z,47.87
2019-03-01T00:47:32.683Z,46.07
2019-03-01T00:50:03.421Z,42.53
2019-03-01T00:52:33.821Z,42.03
2019-03-01T00:55:07.139Z,47.00
2019-03-01T00:57:38.093Z,43.97
2019-03-01T01:00:14.771Z,46.50
2019-03-01T01:02:45.188Z,52.87
2019-03-01T01:05:16.428Z,56.93
2019-03-01T01:07:47.188Z,63.57
2019-03-01T01:10:18.003Z,61.27
2019-03-01T01:12:48.851Z,66.57
2019-03-01T01:15:19.696Z,65.57
2019-03-01T01:17:50.197Z,64.73
2019-03-01T01:20:20.940Z,63.17
2019-03-01T01:22:51.667Z,62.90
2019-03-01T01:25:22.501Z,56.00
2019-03-01T01:27:53.244Z,58.17
2019-03-01T01:30:23.979Z,57.97
2019-03-01T01:32:54.801Z,58.87
2019-03-01T01:35:28.644Z,55.07
2019-03-01T01:37:59.359Z,53.97
2019-03-01T01:40:30.186Z,50.50
2019-03-01T01:43:00.922Z,50.60
2019-03-01T01:45:31.657Z,45.90
2019-03-01T01:48:02.494Z,53.80
2019-03-01T01:50:33.326Z,53.97
2019-03-01T01:53:04.062Z,52.07
2019-03-01T01:55:34.835Z,50.63
2019-03-01T01:58:05.246Z,52.50
2019-03-01T02:00:36.058Z,49.83
2019-03-01T02:03:06.797Z,49.63
2019-03-01T02:05:37.643Z,51.70
2019-03-01T02:08:08.360Z,55.07
2019-03-01T02:10:39.527Z,55.80
2019-03-01T02:13:10.363Z,48.67
2019-03-01T02:15:41.190Z,54.03
2019-03-01T02:18:13.548Z,53.23
2019-03-01T02:20:44.398Z,53.07
2019-03-01T02:23:15.128Z,55.13
2019-03-01T02:25:45.671Z,57.50
2019-03-01T02:28:16.390Z,52.10
2019-03-01T02:30:50.598Z,50.30
2019-03-01T02:33:21.358Z,50.37
2019-03-01T02:35:52.292Z,53.83
2019-03-01T02:38:23.123Z,48.03
2019-03-01T02:40:53.948Z,49.20
2019-03-01T02:43:24.691Z,52.60
2019-03-01T02:45:55.411Z,53.70
2019-03-01T02:48:26.156Z,53.77
2019-03-01T02:50:56.998Z,51.97
2019-03-01T02:53:27.379Z,48.00
2019-03-01T02:55:58.166Z,53.43
2019-03-01T02:58:28.995Z,49.60
2019-03-01T03:00:59.856Z,53.53
2019-03-01T03:03:30.665Z,52.87
2019-03-01T03:06:12.266Z,51.03
2019-03-01T03:08:43.387Z,54.10
2019-03-01T03:11:14.219Z,47.67
2019-03-01T03:13:44.970Z,53.07
2019-03-01T03:16:15.710Z,54.30
2019-03-01T03:18:48.108Z,49.83
2019-03-01T03:21:19.022Z,53.40
2019-03-01T03:23:49.863Z,53.20
2019-03-01T03:26:20.696Z,56.07
2019-03-01T03:28:51.101Z,54.27
2019-03-01T03:31:21.867Z,52.67
2019-03-01T03:33:52.702Z,50.87
2019-03-01T03:36:23.535Z,47.80
2019-03-01T03:38:54.370Z,49.03
2019-03-01T03:41:24.805Z,47.40
2019-03-01T03:43:55.628Z,51.53
2019-03-01T03:46:26.475Z,50.13
2019-03-01T03:48:57.312Z,50.23
2019-03-01T03:51:28.244Z,54.23
2019-03-01T03:53:58.628Z,56.20
2019-03-01T03:56:29.404Z,52.90
2019-03-01T03:59:00.241Z,54.93
2019-03-01T04:01:31.082Z,50.37
2019-03-01T04:04:01.811Z,52.10
2019-03-01T04:06:32.197Z,55.50
2019-03-01T04:09:04.305Z,58.17
2019-03-01T04:11:37.487Z,57.90
2019-03-01T04:14:08.328Z,55.27
2019-03-01T04:16:39.047Z,54.70
2019-03-01T04:19:09.886Z,56.23
2019-03-01T04:21:40.624Z,56.03
2019-03-01T04:24:11.373Z,55.57
2019-03-01T04:26:42.194Z,52.37
2019-03-01T04:29:12.931Z,53.73
2019-03-01T04:31:43.678Z,56.17
2019-03-01T04:34:14.540Z,50.00
2019-03-01T04:36:45.338Z,52.70
2019-03-01T04:39:16.071Z,53.03
2019-03-01T04:41:46.814Z,52.70
2019-03-01T04:44:17.496Z,53.77
2019-03-01T04:46:47.942Z,49.83
2019-03-01T04:49:18.805Z,50.03
2019-03-01T04:51:49.652Z,53.70
2019-03-01T04:54:20.094Z,51.23
2019-03-01T04:56:50.824Z,54.57
2019-03-01T04:59:21.570Z,53.47
2019-03-01T05:01:52.374Z,49.97
2019-03-01T05:04:23.210Z,58.20
2019-03-01T05:06:54.052Z,60.63
2019-03-01T05:09:24.902Z,56.57
2019-03-01T05:11:55.744Z,58.10
2019-03-01T05:14:28.023Z,59.33
2019-03-01T05:16:58.819Z,65.27
2019-03-01T05:19:29.730Z,68.27
2019-03-01T05:22:00.500Z,65.07
2019-03-01T05:24:31.228Z,58.27
2019-03-01T05:27:01.967Z,55.90
2019-03-01T05:29:32.863Z,59.40
2019-03-01T05:32:03.674Z,57.30
2019-03-01T05:34:34.385Z,57.33
2019-03-01T05:37:05.224Z,60.70
2019-03-01T05:39:36.067Z,64.27
2019-03-01T05:42:06.905Z,65.20
2019-03-01T05:44:37.741Z,62.33
2019-03-01T05:47:08.543Z,61.27
2019-03-01T05:49:39.502Z,66.43
2019-03-01T05:52:12.096Z,67.00
2019-03-01T05:54:43.035Z,60.63
2019-03-01T05:57:13.747Z,66.50
2019-03-01T05:59:44.484Z,63.17
2019-03-01T06:02:27.012Z,70.33
2019-03-01T06:04:59.329Z,70.67
2019-03-01T06:07:41.636Z,74.70
2019-03-01T06:10:21.233Z,64.07
2019-03-01T06:13:33.478Z,66.83
2019-03-01T06:16:10.737Z,74.23
2019-03-01T06:19:10.332Z,72.57
2019-03-01T06:22:05.136Z,69.03
2019-03-01T06:24:55.756Z,73.47
2019-03-01T06:27:44.778Z,75.33
2019-03-01T06:30:36.425Z,75.60
2019-03-01T06:33:10.335Z,68.13
2019-03-01T06:35:56.411Z,81.60
2019-03-01T06:38:43.830Z,76.83
2019-03-01T06:41:40.383Z,81.40
2019-03-01T06:44:16.407Z,83.90
2019-03-01T06:47:10.661Z,95.17
2019-03-01T06:49:49.640Z,88.53
2019-03-01T06:52:21.705Z,84.90
2019-03-01T06:54:52.602Z,85.53
2019-03-01T06:57:28.209Z,93.27
2019-03-01T06:59:59.278Z,96.20
2019-03-01T07:02:31.743Z,85.60
2019-03-01T07:05:02.455Z,85.47
2019-03-01T07:07:33.289Z,87.97
2019-03-01T07:10:04.237Z,95.40
2019-03-01T07:12:38.023Z,89.57
2019-03-01T07:15:09.287Z,85.67
2019-03-01T07:17:40.119Z,92.60
2019-03-01T07:20:12.645Z,96.67
2019-03-01T07:22:43.324Z,98.37
2019-03-01T07:25:14.214Z,99.97
2019-03-01T07:27:45.005Z,82.80
2019-03-01T07:30:15.878Z,98.83
2019-03-01T07:32:46.927Z,103.27
2019-03-01T07:35:17.907Z,95.63
2019-03-01T07:37:48.754Z,93.23
2019-03-01T07:40:19.609Z,99.53
2019-03-01T07:42:50.429Z,105.83
2019-03-01T07:45:21.188Z,108.57
2019-03-01T07:47:51.655Z,96.73
2019-03-01T07:50:23.129Z,91.47
2019-03-01T07:52:55.768Z,106.53
2019-03-01T07:55:28.381Z,98.50
2019-03-01T07:57:59.136Z,99.03
2019-03-01T08:00:31.409Z,96.67
2019-03-01T08:03:02.237Z,92.53
2019-03-01T08:05:35.519Z,92.17
2019-03-01T08:08:05.174Z,94.17
2019-03-01T08:10:36.021Z,99.50
2019-03-01T08:13:06.529Z,95.90
2019-03-01T08:15:40.727Z,89.67
2019-03-01T08:18:09.827Z,93.73
2019-03-01T08:20:40.499Z,89.37
2019-03-01T08:23:11.317Z,92.80
2019-03-01T08:25:42.126Z,105.87
2019-03-01T08:28:12.881Z,96.50
2019-03-01T08:30:45.785Z,106.50
2019-03-01T08:33:15.991Z,99.40
2019-03-01T08:35:46.820Z,102.90
2019-03-01T08:38:17.546Z,100.37
2019-03-01T08:40:49.896Z,100.07
2019-03-01T08:43:20.757Z,104.87
2019-03-01T08:45:51.466Z,108.60
2019-03-01T08:48:22.472Z,106.13
2019-03-01T08:50:53.257Z,108.67
2019-03-01T08:53:24.029Z,104.13
2019-03-01T08:55:54.827Z,109.30
2019-03-01T08:58:25.663Z,100.13
2019-03-01T09:00:59.610Z,110.07
2019-03-01T09:03:34.604Z,100.93
2019-03-01T09:06:06.556Z,112.50
2019-03-01T09:08:37.329Z,100.37
2019-03-01T09:11:09.177Z,108.73
2019-03-01T09:13:40.616Z,103.50
2019-03-01T09:16:11.490Z,107.67
2019-03-01T09:18:42.297Z,118.80
2019-03-01T09:21:13.692Z,109.90
2019-03-01T09:23:47.871Z,103.07
2019-03-01T09:26:19.938Z,103.30
2019-03-01T09:28:49.423Z,98.63
2019-03-01T09:31:20.294Z,108.00
2019-03-01T09:33:53.753Z,107.37
2019-03-01T09:36:25.106Z,90.40
2019-03-01T09:38:55.870Z,105.47
2019-03-01T09:41:27.781Z,101.67
2019-03-01T09:43:59.692Z,101.50
2019-03-01T09:46:31.014Z,104.10
2019-03-01T09:49:01.514Z,111.27
2019-03-01T09:51:32.334Z,94.33
2019-03-01T09:54:06.361Z,105.23
2019-03-01T09:56:35.502Z,110.53
2019-03-01T09:59:06.372Z,110.93
2019-03-01T10:01:37.261Z,104.43
2019-03-01T10:04:08.118Z,99.63
2019-03-01T10:06:40.491Z,120.33
2019-03-01T10:09:11.728Z,107.17
2019-03-01T10:11:42.499Z,189.43
2019-03-01T10:14:12.880Z,102.93
2019-03-01T10:16:43.770Z,104.97
2019-03-01T10:19:14.669Z,93.27
2019-03-01T10:21:45.120Z,93.73
2019-03-01T10:24:15.934Z,95.90
2019-03-01T10:26:46.665Z,99.67
2019-03-01T10:29:17.508Z,90.67
2019-03-01T10:31:48.336Z,94.43
2019-03-01T10:34:19.176Z,98.57
2019-03-01T10:36:49.569Z,99.30
2019-03-01T10:39:20.351Z,117.13
2019-03-01T10:41:51.160Z,117.80
2019-03-01T10:44:22.015Z,101.70
2019-03-01T10:46:52.749Z,114.30
2019-03-01T10:49:23.485Z,118.57
2019-03-01T10:51:53.876Z,120.30
2019-03-01T10:54:24.643Z,117.73
2019-03-01T10:56:55.474Z,114.43
2019-03-01T10:59:26.215Z,115.77
2019-03-01T11:01:57.040Z,120.13
2019-03-01T11:04:27.914Z,113.10
2019-03-01T11:06:58.821Z,123.60
2019-03-01T11:09:29.666Z,125.13
2019-03-01T11:12:00.492Z,122.20
2019-03-01T11:14:31.244Z,124.80
2019-03-01T11:17:01.964Z,123.43
2019-03-01T11:19:32.693Z,102.33
2019-03-01T11:22:03.545Z,104.60
2019-03-01T11:24:34.269Z,98.00
2019-03-01T11:27:12.704Z,97.10
2019-03-01T11:29:37.593Z,97.00
2019-03-01T11:32:08.990Z,96.83
2019-03-01T11:34:39.796Z,94.37
2019-03-01T11:37:10.717Z,94.77
2019-03-01T11:39:41.574Z,81.20
2019-03-01T11:42:12.378Z,90.70
2019-03-01T11:44:43.387Z,92.20
2019-03-01T11:47:14.407Z,101.00
2019-03-01T11:49:45.275Z,94.80
2019-03-01T11:52:16.143Z,96.37
2019-03-01T11:54:46.969Z,96.90
2019-03-01T11:57:17.708Z,96.00
2019-03-01T11:59:48.650Z,98.23
2019-03-01T12:02:19.583Z,98.00
2019-03-01T12:04:50.079Z,108.93
2019-03-01T12:07:20.971Z,97.83
2019-03-01T12:09:52.157Z,97.37
2019-03-01T12:12:23.034Z,91.80
2019-03-01T12:14:54.281Z,79.57
2019-03-01T12:17:25.223Z,68.37
2019-03-01T12:19:55.674Z,67.10
2019-03-01T12:22:26.510Z,73.27
2019-03-01T12:24:57.527Z,67.97
2019-03-01T12:27:28.398Z,71.40
2019-03-01T12:29:59.293Z,69.50
2019-03-01T12:32:30.139Z,67.73
2019-03-01T12:35:00.889Z,67.87
2019-03-01T12:37:31.863Z,61.33
2019-03-01T12:40:02.317Z,63.47
2019-03-01T12:42:33.087Z,63.13
2019-03-01T12:45:04.139Z,66.70
2019-03-01T12:47:35.069Z,64.93
2019-03-01T12:50:08.991Z,64.03
2019-03-01T12:52:39.911Z,65.93
2019-03-01T12:55:19.137Z,62.97
2019-03-01T12:57:49.628Z,59.77
2019-03-01T13:00:25.928Z,51.63
2019-03-01T13:02:56.678Z,53.70
2019-03-01T13:05:29.376Z,51.83
2019-03-01T13:07:59.951Z,50.13
2019-03-01T13:10:36.827Z,47.53
2019-03-01T13:13:08.592Z,43.87
2019-03-01T13:15:40.318Z,42.37
2019-03-01T13:18:15.695Z,38.90
2019-03-01T13:20:45.337Z,37.53
2019-03-01T13:23:16.252Z,30.90
2019-03-01T13:25:47.249Z,34.70
2019-03-01T13:28:21.136Z,33.27
2019-03-01T13:30:51.952Z,26.67
2019-03-01T13:33:25.030Z,28.07
2019-03-01T13:35:55.899Z,25.77
2019-03-01T13:38:26.826Z,27.43
2019-03-01T13:40:58.768Z,26.73
2019-03-01T13:43:30.056Z,26.47
2019-03-01T13:46:00.461Z,25.87
2019-03-01T13:48:32.731Z,26.97
2019-03-01T13:51:03.585Z,24.23
2019-03-01T13:53:34.293Z,25.70
2019-03-01T13:56:07.353Z,23.03
2019-03-01T13:58:38.327Z,23.57
2019-03-01T14:01:08.841Z,21.07
2019-03-01T14:03:39.714Z,22.03
2019-03-01T14:06:10.632Z,22.07
2019-03-01T14:08:41.458Z,20.97
2019-03-01T14:11:15.066Z,21.43
2019-03-01T14:13:47.719Z,21.50
2019-03-01T14:16:20.416Z,20.10
2019-03-01T14:18:49.771Z,18.43
2019-03-01T14:21:20.657Z,14.77
2019-03-01T14:23:51.423Z,15.20
2019-03-01T14:26:22.876Z,15.43
2019-03-01T14:28:54.963Z,15.43
2019-03-01T14:31:27.949Z,18.47
2019-03-01T14:33:58.758Z,15.57
2019-03-01T14:36:29.609Z,14.47
2019-03-01T14:39:03.460Z,17.70
2019-03-01T14:41:35.170Z,18.37
2019-03-01T14:44:06.178Z,15.40
2019-03-01T14:46:36.946Z,14.67
2019-03-01T14:49:07.774Z,11.73
2019-03-01T14:51:38.632Z,13.77
2019-03-01T14:54:09.888Z,15.57
2019-03-01T14:56:43.427Z,14.63
2019-03-01T14:59:23.226Z,14.47
2019-03-01T15:02:06.213Z,14.47
2019-03-01T15:04:37.026Z,14.37
2019-03-01T15:07:07.808Z,12.80
2019-03-01T15:09:38.544Z,13.97
2019-03-01T15:12:09.164Z,13.53
2019-03-01T15:14:40.099Z,12.43
2019-03-01T15:17:10.661Z,12.10
2019-03-01T15:19:44.573Z,13.10
2019-03-01T15:22:14.437Z,11.73
2019-03-01T15:24:45.176Z,11.93
2019-03-01T15:27:15.647Z,12.40
2019-03-01T15:29:46.438Z,14.17
2019-03-01T15:32:17.482Z,13.33
2019-03-01T15:34:50.216Z,12.13
2019-03-01T15:37:20.983Z,12.13
2019-03-01T15:39:54.318Z,11.87
2019-03-01T15:42:24.320Z,13.23
2019-03-01T15:44:55.142Z,12.80
2019-03-01T15:47:26.710Z,11.50
2019-03-01T15:49:58.235Z,12.47
2019-03-01T15:52:29.131Z,12.07
2019-03-01T15:55:02.798Z,13.00
2019-03-01T15:57:33.737Z,14.53
2019-03-01T16:00:07.377Z,10.83
2019-03-01T16:02:40.072Z,16.17
2019-03-01T16:05:12.482Z,12.33
2019-03-01T16:07:43.353Z,12.53
2019-03-01T16:10:21.089Z,14.33
2019-03-01T16:12:56.784Z,12.50
2019-03-01T16:15:27.829Z,14.80
2019-03-01T16:18:00.975Z,13.37
2019-03-01T16:20:31.235Z,12.80
2019-03-01T16:23:01.950Z,12.37
2019-03-01T16:25:32.860Z,12.00
2019-03-01T16:28:03.771Z,12.10
2019-03-01T16:30:34.570Z,13.93
2019-03-01T16:33:05.396Z,13.90
2019-03-01T16:35:42.097Z,10.93
2019-03-01T16:38:12.997Z,14.53
2019-03-01T16:40:53.639Z,12.60
2019-03-01T16:43:25.377Z,14.57
2019-03-01T16:45:56.389Z,15.80
2019-03-01T16:48:28.141Z,16.20
2019-03-01T16:50:59.015Z,14.90
2019-03-01T16:53:29.920Z,11.50
2019-03-01T16:56:02.560Z,12.03
2019-03-01T16:58:33.354Z,14.07
2019-03-01T17:01:06.237Z,12.80
2019-03-01T17:03:37.054Z,12.53
2019-03-01T17:06:10.460Z,13.53
2019-03-01T17:08:40.624Z,14.63
2019-03-01T17:11:11.537Z,9.97
2019-03-01T17:13:42.568Z,12.00
2019-03-01T17:16:16.085Z,13.07
2019-03-01T17:18:47.752Z,14.60
2019-03-01T17:21:19.051Z,12.40
2019-03-01T17:23:49.797Z,16.47
2019-03-01T17:26:20.598Z,14.87
2019-03-01T17:28:54.093Z,15.00
2019-03-01T17:31:26.753Z,13.47
2019-03-01T17:33:58.257Z,13.33
2019-03-01T17:36:29.104Z,15.33
2019-03-01T17:38:59.820Z,12.30
2019-03-01T17:41:30.674Z,13.03
2019-03-01T17:44:01.391Z,17.00
2019-03-01T17:46:32.942Z,10.87
2019-03-01T17:49:04.312Z,10.33
2019-03-01T17:51:35.150Z,13.83
2019-03-01T17:54:08.967Z,11.63
2019-03-01T17:56:41.451Z,12.13
2019-03-01T17:59:13.002Z,15.43
2019-03-01T18:01:43.919Z,14.07
2019-03-01T18:04:14.764Z,11.90
2019-03-01T18:06:45.384Z,11.50
2019-03-01T18:09:17.001Z,11.70
2019-03-01T18:11:48.090Z,12.00
2019-03-01T18:14:18.937Z,13.53
2019-03-01T18:16:49.795Z,12.07
2019-03-01T18:19:20.258Z,11.03
2019-03-01T18:21:51.180Z,11.23
2019-03-01T18:24:22.158Z,12.33
2019-03-01T18:26:53.060Z,10.73
2019-03-01T18:29:23.630Z,11.97
2019-03-01T18:31:54.472Z,11.00
2019-03-01T18:34:25.306Z,9.97
2019-03-01T18:36:56.165Z,9.63
2019-03-01T18:39:27.098Z,10.13
2019-03-01T18:41:59.297Z,8.47
2019-03-01T18:44:30.511Z,9.57
2019-03-01T18:47:01.348Z,9.07
2019-03-01T18:49:32.169Z,8.77
2019-03-01T18:52:03.007Z,13.53
2019-03-01T18:54:35.849Z,10.60
2019-03-01T18:57:06.422Z,12.37
2019-03-01T18:59:37.287Z,9.90
2019-03-01T19:02:08.292Z,14.80
2019-03-01T19:04:38.749Z,9.57
2019-03-01T19:07:09.447Z,9.83
2019-03-01T19:09:40.212Z,11.07
2019-03-01T19:12:12.551Z,9.93
2019-03-01T19:14:42.784Z,9.07
2019-03-01T19:17:13.166Z,14.77
2019-03-01T19:19:44.048Z,10.97
2019-03-01T19:22:14.896Z,11.67
2019-03-01T19:24:46.867Z,11.27
2019-03-01T19:27:18.207Z,13.07
2019-03-01T19:29:50.468Z,8.87
2019-03-01T19:32:26.814Z,10.73
2019-03-01T19:34:59.060Z,14.20
2019-03-01T19:37:29.824Z,12.97
2019-03-01T19:40:00.786Z,9.57
2019-03-01T19:42:32.954Z,11.43
2019-03-01T19:45:05.984Z,11.83
2019-03-01T19:47:37.075Z,11.80
2019-03-01T19:50:13.493Z,11.03
2019-03-01T19:52:47.072Z,9.93
2019-03-01T19:55:17.292Z,10.43
2019-03-01T19:57:48.094Z,9.60
2019-03-01T20:00:24.373Z,9.97
2019-03-01T20:02:55.425Z,12.47
2019-03-01T20:05:38.855Z,9.37
2019-03-01T20:08:11.227Z,9.77
2019-03-01T20:10:42.149Z,9.97
2019-03-01T20:13:16.336Z,9.63
2019-03-01T20:15:46.049Z,11.00
2019-03-01T20:18:17.397Z,11.80
2019-03-01T20:20:48.258Z,10.23
2019-03-01T20:23:19.107Z,9.43
2019-03-01T20:25:50.839Z,7.50
2019-03-01T20:28:22.350Z,10.73
2019-03-01T20:30:53.261Z,9.80
2019-03-01T20:33:27.114Z,12.23
2019-03-01T20:35:56.567Z,7.40
2019-03-01T20:38:27.525Z,10.50
2019-03-01T20:41:03.218Z,10.93
2019-03-01T20:43:32.565Z,9.23
2019-03-01T20:46:03.772Z,9.97
2019-03-01T20:48:35.875Z,10.40
2019-03-01T20:51:06.811Z,9.50
2019-03-01T20:53:39.077Z,12.23
2019-03-01T20:56:09.914Z,10.07
2019-03-01T20:58:41.979Z,9.63
2019-03-01T21:01:14.417Z,10.40
2019-03-01T21:03:45.698Z,9.33
2019-03-01T21:06:16.367Z,9.43
2019-03-01T21:08:47.263Z,9.60
2019-03-01T21:11:18.132Z,10.83
2019-03-01T21:13:49.091Z,11.13
2019-03-01T21:16:20.516Z,9.30
2019-03-01T21:18:51.441Z,7.33
2019-03-01T21:21:22.262Z,9.97
2019-03-01T21:23:53.195Z,10.03
2019-03-01T21:26:30.557Z,11.83
2019-03-01T21:29:01.566Z,11.40
2019-03-01T21:31:35.435Z,8.77
2019-03-01T21:34:04.861Z,9.30
2019-03-01T21:36:35.701Z,9.10
2019-03-01T21:39:07.572Z,10.77
2019-03-01T21:41:38.133Z,9.17
2019-03-01T21:44:10.572Z,10.67
2019-03-01T21:46:43.230Z,10.90
2019-03-01T21:49:14.584Z,9.93
2019-03-01T21:51:45.326Z,11.40
2019-03-01T21:54:24.410Z,9.13
2019-03-01T21:56:59.862Z,12.53
2019-03-01T21:59:30.943Z,10.20
2019-03-01T22:02:03.540Z,10.97
2019-03-01T22:04:37.499Z,8.17
2019-03-01T22:07:08.978Z,10.60
2019-03-01T22:09:39.809Z,10.63
2019-03-01T22:12:10.665Z,8.87
2019-03-01T22:14:41.580Z,12.20
2019-03-01T22:17:14.567Z,10.40
2019-03-01T22:19:45.367Z,8.93
2019-03-01T22:22:16.359Z,10.40
2019-03-01T22:24:53.003Z,10.80
2019-03-01T22:27:25.285Z,11.10
2019-03-01T22:29:56.687Z,11.87
2019-03-01T22:32:27.574Z,10.27
2019-03-01T22:34:58.423Z,8.23
2019-03-01T22:37:31.181Z,11.87
2019-03-01T22:40:02.250Z,12.00
2019-03-01T22:42:33.393Z,11.13
2019-03-01T22:45:06.778Z,13.13
2019-03-01T22:47:37.623Z,11.80
2019-03-01T22:50:16.526Z,12.67
2019-03-01T22:52:47.274Z,14.93
2019-03-01T22:55:19.463Z,14.10
2019-03-01T22:57:50.374Z,12.40
2019-03-01T23:00:48.183Z,13.87
2019-03-01T23:03:20.221Z,12.57
2019-03-01T23:05:51.149Z,14.27
2019-03-01T23:08:21.999Z,15.43
2019-03-01T23:10:53.806Z,14.53
2019-03-01T23:13:25.316Z,18.07
2019-03-01T23:15:56.150Z,56.63
2019-03-01T23:18:28.719Z,28.10
2019-03-01T23:21:01.973Z,15.90
2019-03-01T23:23:32.729Z,20.87
2019-03-01T23:26:03.472Z,16.47
2019-03-01T23:28:33.890Z,11.10
2019-03-01T23:31:04.708Z,9.13
2019-03-01T23:33:37.267Z,8.33
2019-03-01T23:36:07.702Z,10.30
2019-03-01T23:38:38.486Z,11.97
2019-03-01T23:41:11.439Z,9.27
2019-03-01T23:43:41.813Z,9.90
2019-03-01T23:46:12.652Z,9.83
2019-03-01T23:48:45.600Z,9.97
2019-03-01T23:51:15.852Z,9.73
2019-03-01T23:53:46.679Z,12.47
2019-03-01T23:56:17.511Z,9.90
2019-03-01T23:58:51.863Z,11.20
